createdAt,value
2024-02-13T00:01:48.899Z,13.47
2024-02-13T00:07:02.224Z,13.13
2024-02-13T00:12:08.341Z,12.27
2024-02-13T00:17:17.524Z,12.50
2024-02-13T00:22:34.374Z,12.57
2024-02-13T00:27:41.514Z,12.60
2024-02-13T00:32:49.236Z,12.77
2024-02-13T00:37:57.236Z,12.67
2024-02-13T00:43:02.759Z,13.63
2024-02-13T00:48:11.837Z,13.03
2024-02-13T00:53:20.333Z,12.27
2024-02-13T00:58:25.506Z,11.87
2024-02-13T01:03:30.966Z,11.33
2024-02-13T01:08:40.214Z,10.93
2024-02-13T01:13:45.331Z,12.13
2024-02-13T01:18:53.609Z,11.67
2024-02-13T01:24:04.081Z,10.70
2024-02-13T01:29:10.405Z,11.03
2024-02-13T01:34:15.896Z,11.63
2024-02-13T01:39:25.713Z,11.77
2024-02-13T01:44:31.107Z,11.27
2024-02-13T01:49:38.862Z,10.40
2024-02-13T01:54:48.057Z,11.67
2024-02-13T01:59:53.509Z,12.70
2024-02-13T02:05:00.672Z,11.23
2024-02-13T02:10:11.870Z,12.20
2024-02-13T02:15:18.122Z,12.17
2024-02-13T02:20:23.994Z,12.87
2024-02-13T02:25:35.434Z,15.00
2024-02-13T02:30:43.911Z,13.53
2024-02-13T02:35:57.320Z,13.00
2024-02-13T02:41:13.621Z,12.97
2024-02-13T02:46:23.653Z,13.30
2024-02-13T02:51:30.017Z,12.90
2024-02-13T02:56:38.966Z,13.00
2024-02-13T03:01:44.351Z,12.07
2024-02-13T03:06:49.586Z,12.90
2024-02-13T03:11:57.698Z,12.73
2024-02-13T03:17:03.376Z,13.10
2024-02-13T03:22:10.337Z,13.77
2024-02-13T03:27:18.712Z,11.47
2024-02-13T03:32:24.094Z,11.77
2024-02-13T03:37:29.357Z,12.87
2024-02-13T03:42:37.773Z,12.20
2024-02-13T03:47:43.393Z,11.53
2024-02-13T03:52:49.104Z,11.97
2024-02-13T03:57:59.153Z,12.30
2024-02-13T04:03:04.708Z,11.90
2024-02-13T04:08:10.920Z,11.63
2024-02-13T04:13:19.372Z,11.27
2024-02-13T04:18:25.154Z,11.83
2024-02-13T04:23:31.553Z,11.03
2024-02-13T04:28:41.222Z,11.73
2024-02-13T04:33:47.227Z,11.13
2024-02-13T04:38:52.879Z,11.20
2024-02-13T04:44:01.236Z,11.43
2024-02-13T04:49:07.104Z,12.97
2024-02-13T04:54:12.730Z,11.17
2024-02-13T04:59:22.910Z,10.97
2024-02-13T05:04:40.763Z,10.83
2024-02-13T05:09:46.664Z,11.83
2024-02-13T05:14:54.833Z,10.47
2024-02-13T05:20:01.504Z,9.70
2024-02-13T05:25:09.766Z,9.90
2024-02-13T05:30:19.830Z,9.03
2024-02-13T05:35:26.667Z,9.20
2024-02-13T05:40:32.215Z,9.50
2024-02-13T05:45:40.851Z,9.30
2024-02-13T05:50:46.390Z,10.00
2024-02-13T05:55:55.760Z,10.40
2024-02-13T06:01:08.963Z,8.03
2024-02-13T06:06:17.542Z,8.37
2024-02-13T06:11:33.219Z,7.77
2024-02-13T06:16:41.497Z,7.77
2024-02-13T06:21:46.988Z,7.57
2024-02-13T06:26:55.096Z,7.63
2024-02-13T06:32:08.273Z,7.37
2024-02-13T06:37:15.221Z,8.20
2024-02-13T06:42:20.640Z,8.83
2024-02-13T06:47:35.366Z,7.67
2024-02-13T06:52:42.931Z,8.63
2024-02-13T06:57:49.181Z,9.43
2024-02-13T07:03:11.262Z,8.67
2024-02-13T07:08:17.754Z,6.63
2024-02-13T07:13:50.734Z,7.03
2024-02-13T07:19:03.147Z,7.60
2024-02-13T07:24:10.598Z,6.87
2024-02-13T07:29:23.983Z,7.13
2024-02-13T07:34:38.570Z,6.83
2024-02-13T07:39:44.509Z,7.00
2024-02-13T07:44:52.631Z,6.73
2024-02-13T07:50:01.430Z,7.33
2024-02-13T07:55:07.519Z,7.67
2024-02-13T08:00:16.638Z,5.80
2024-02-13T08:05:24.843Z,8.13
2024-02-13T08:10:34.161Z,7.27
2024-02-13T08:16:14.862Z,6.27
2024-02-13T08:21:28.447Z,6.43
2024-02-13T08:26:33.967Z,7.23
2024-02-13T08:31:47.240Z,6.43
2024-02-13T08:37:01.148Z,5.53
2024-02-13T08:42:09.316Z,5.43
2024-02-13T08:47:16.557Z,6.13
2024-02-13T08:52:26.964Z,6.17
2024-02-13T08:57:34.872Z,5.70
2024-02-13T09:02:51.342Z,5.57
2024-02-13T09:08:11.355Z,4.73
2024-02-13T09:13:18.713Z,4.33
2024-02-13T09:18:27.887Z,5.73
2024-02-13T09:23:36.948Z,4.87
2024-02-13T09:28:55.180Z,5.03
2024-02-13T09:34:09.812Z,4.77
2024-02-13T09:39:18.852Z,6.10
2024-02-13T09:44:24.911Z,4.53
2024-02-13T09:49:38.108Z,5.30
2024-02-13T09:54:52.170Z,5.77
2024-02-13T10:00:02.819Z,5.27
2024-02-13T10:05:12.180Z,5.43
2024-02-13T10:10:20.812Z,4.53
2024-02-13T10:15:43.902Z,4.33
2024-02-13T10:20:50.424Z,5.17
2024-02-13T10:25:58.324Z,6.20
2024-02-13T10:31:03.563Z,5.53
2024-02-13T10:36:10.023Z,5.20
2024-02-13T10:41:24.965Z,4.70
2024-02-13T10:46:43.676Z,5.23
2024-02-13T10:52:03.418Z,3.97
2024-02-13T11:03:06.666Z,3.33
2024-02-13T11:08:20.962Z,4.10
2024-02-13T11:13:33.567Z,3.43
2024-02-13T11:18:47.729Z,4.50
2024-02-13T11:24:02.660Z,4.07
2024-02-13T11:29:25.240Z,2.60
2024-02-13T11:34:46.254Z,3.53
2024-02-13T11:45:27.906Z,2.83
2024-02-13T11:50:37.523Z,3.73
2024-02-13T11:55:44.463Z,4.40
2024-02-13T12:01:06.188Z,4.80
2024-02-13T12:06:11.572Z,4.53
2024-02-13T12:11:19.489Z,3.33
2024-02-13T12:16:29.797Z,3.17
2024-02-13T12:21:34.877Z,3.83
2024-02-13T12:26:41.026Z,3.23
2024-02-13T12:32:02.489Z,4.87
2024-02-13T12:37:13.012Z,3.17
2024-02-13T12:42:19.045Z,4.40
2024-02-13T12:47:27.117Z,4.70
2024-02-13T12:52:33.245Z,3.07
2024-02-13T12:57:38.273Z,4.27
2024-02-13T13:02:46.122Z,3.80
2024-02-13T13:07:52.710Z,4.00
2024-02-13T13:12:58.993Z,4.50
2024-02-13T13:18:12.787Z,4.27
2024-02-13T13:23:22.695Z,3.63
2024-02-13T13:28:30.301Z,3.07
2024-02-13T13:33:40.741Z,3.43
2024-02-13T13:38:47.536Z,3.07
2024-02-13T13:43:52.651Z,3.00
2024-02-13T13:49:09.400Z,3.70
2024-02-13T13:54:16.691Z,3.87
2024-02-13T13:59:23.549Z,2.97
2024-02-13T14:04:32.943Z,3.77
2024-02-13T14:09:38.533Z,3.03
2024-02-13T14:14:43.899Z,2.53
2024-02-13T14:19:56.455Z,3.50
2024-02-13T14:25:04.988Z,3.30
2024-02-13T14:30:12.072Z,3.07
2024-02-13T14:35:39.873Z,2.93
2024-02-13T14:40:50.540Z,2.60
2024-02-13T14:46:00.146Z,3.00
2024-02-13T14:51:08.438Z,2.60
2024-02-13T14:56:14.781Z,2.30
2024-02-13T15:01:20.124Z,2.80
2024-02-13T15:06:33.052Z,2.73
2024-02-13T15:11:39.761Z,2.40
2024-02-13T15:16:49.846Z,2.10
2024-02-13T15:21:57.650Z,2.77
2024-02-13T15:27:07.319Z,2.53
2024-02-13T15:32:15.663Z,2.40
2024-02-13T15:37:50.588Z,2.60
2024-02-13T15:43:13.744Z,2.57
2024-02-13T15:48:21.129Z,2.67
2024-02-13T15:53:32.312Z,2.30
2024-02-13T15:58:38.518Z,2.60
2024-02-13T16:03:44.664Z,2.60
2024-02-13T16:08:54.839Z,2.53
2024-02-13T16:14:10.138Z,2.53
2024-02-13T16:19:16.049Z,4.00
2024-02-13T16:24:23.970Z,4.30
2024-02-13T16:29:29.107Z,4.23
2024-02-13T16:34:38.814Z,2.67
2024-02-13T16:39:49.118Z,2.43
2024-02-13T16:44:56.663Z,2.50
2024-02-13T16:50:03.244Z,3.53
2024-02-13T16:55:12.184Z,3.00
2024-02-13T17:00:20.745Z,2.60
2024-02-13T17:05:26.479Z,2.40
2024-02-13T17:10:34.938Z,2.37
2024-02-13T17:15:40.233Z,1.83
2024-02-13T17:20:45.973Z,5.97
2024-02-13T17:25:57.307Z,5.57
2024-02-13T17:31:02.470Z,22.70
2024-02-13T17:36:13.222Z,15.80
2024-02-13T17:41:28.852Z,8.17
2024-02-13T17:46:34.028Z,10.20
2024-02-13T17:51:42.015Z,5.07
2024-02-13T17:56:54.025Z,4.40
2024-02-13T18:01:59.960Z,3.50
2024-02-13T18:07:05.596Z,3.33
2024-02-13T18:12:13.606Z,3.20
2024-02-13T18:17:21.993Z,3.63
2024-02-13T18:22:27.240Z,5.37
2024-02-13T18:27:34.858Z,5.00
2024-02-13T18:32:42.758Z,4.57
2024-02-13T18:37:48.124Z,4.43
2024-02-13T18:42:56.614Z,4.57
2024-02-13T18:48:02.732Z,4.40
2024-02-13T18:53:12.822Z,4.57
2024-02-13T18:58:21.638Z,4.40
2024-02-13T19:03:32.071Z,4.73
2024-02-13T19:08:48.966Z,4.90
2024-02-13T19:14:00.648Z,4.80
2024-02-13T19:19:09.125Z,5.33
2024-02-13T19:24:29.169Z,4.57
2024-02-13T19:29:40.521Z,6.97
2024-02-13T19:34:46.272Z,4.90
2024-02-13T19:39:54.052Z,3.77
2024-02-13T19:45:07.952Z,5.40
2024-02-13T19:55:38.722Z,6.40
2024-02-13T20:00:47.147Z,6.77
2024-02-13T20:05:54.449Z,4.10
2024-02-13T20:11:03.313Z,4.77
2024-02-13T20:16:12.718Z,4.47
2024-02-13T20:21:22.687Z,4.17
2024-02-13T20:26:28.313Z,4.47
2024-02-13T20:31:36.866Z,4.50
2024-02-13T20:36:42.558Z,4.30
2024-02-13T20:41:48.995Z,3.93
2024-02-13T20:46:58.031Z,4.57
2024-02-13T20:52:03.236Z,4.87
2024-02-13T20:57:10.306Z,3.63
2024-02-13T21:02:18.711Z,5.53
2024-02-13T21:07:26.444Z,4.00
2024-02-13T21:12:32.338Z,4.40
2024-02-13T21:17:46.991Z,4.43
2024-02-13T21:23:11.160Z,4.67
2024-02-13T21:28:16.340Z,4.27
2024-02-13T21:33:27.656Z,4.40
2024-02-13T21:38:36.095Z,4.10
2024-02-13T21:43:41.394Z,4.37
2024-02-13T21:48:50.893Z,4.27
2024-02-13T21:53:56.307Z,6.27
2024-02-13T21:59:06.163Z,4.20
2024-02-13T22:04:16.318Z,3.37
2024-02-13T22:09:23.831Z,5.00
2024-02-13T22:14:29.479Z,6.83
2024-02-13T22:19:37.548Z,6.47
2024-02-13T22:24:42.639Z,5.83
2024-02-13T22:29:50.147Z,5.40
2024-02-13T22:34:59.014Z,5.50
2024-02-13T22:40:04.563Z,5.40
2024-02-13T22:45:12.072Z,5.90
2024-02-13T22:50:21.883Z,5.70
2024-02-13T22:55:27.047Z,5.97
2024-02-13T23:00:50.742Z,4.90
2024-02-13T23:06:00.703Z,6.30
2024-02-13T23:11:08.821Z,5.33
2024-02-13T23:16:14.580Z,5.63
2024-02-13T23:21:22.997Z,6.07
2024-02-13T23:26:28.158Z,5.33
2024-02-13T23:31:34.227Z,5.10
2024-02-13T23:36:41.840Z,5.03
2024-02-13T23:41:47.325Z,5.10
2024-02-13T23:46:57.150Z,5.90
2024-02-13T23:52:04.845Z,4.63
2024-02-13T23:57:10.947Z,5.70
